Main page
METAR-TAF:

METAR-TAF

Airports :

Vilnius, Lithuania

Vilnius Airport

latitude: 54-38N, longitude: 025-06E, elevation: 162 m

Current weather observation

The report was made 15 minutes ago, at 16:20 UTC
Wind 4 kt from the East
Temperature -11°C
Humidity 78%
Pressure 1023 hPa
Visibility 10 km or more
no clouds below 1500 m and no cumulonimbus

METAR: EYVI 231620Z 09004KT CAVOK M11/M14 Q1023 R19/1///95 NOSIG

Time: 18:35 (16:35 UTC)

Forecast

The report was made 5 hours and 30 minutes ago, at 11:05 UTC
Forecast valid from 23 at 12 UTC to 24 at 12 UTC
Wind 4 kt from variable directions
Visibility: 9000 m
Scattered clouds at a height of 2000 ft
Temporary
from 23 at 22 UTC to 24 at 06 UTC
Broken clouds at a height of 500 ft
Becoming
from 24 at 06 UTC to 24 at 08 UTC
Wind 14 kt from the Northeast

TAF: EYVI 231105Z 2312/2412 VRB04KT 9000 SCT020 TEMPO 2322/2406 BKN005 BECMG 2406/2408 04014KT

Weather observations and forecasts of more than 4000 airports (METAR and TAF reports).

The available stations are represented by yellow and red dots on the map.

Hover mouse over dot to see the name of the station.

Then click to see weather observations and forecasts.

To change the map : click on the green buttons with a black cross to zoom in, on the green button with a dash to zoom out, or on the green arrows for adjacent maps.


METAR-TAF: